createdAt,value
2018-08-25T00:02:15.880Z,1.73
2018-08-25T00:04:43.814Z,1.87
2018-08-25T00:07:11.586Z,2.00
2018-08-25T00:09:39.530Z,1.67
2018-08-25T00:12:07.244Z,2.10
2018-08-25T00:14:34.899Z,1.80
2018-08-25T00:17:02.700Z,1.80
2018-08-25T00:19:32.564Z,1.67
2018-08-25T00:22:00.359Z,1.80
2018-08-25T00:24:28.080Z,2.00
2018-08-25T00:26:55.902Z,2.03
2018-08-25T00:29:23.641Z,2.00
2018-08-25T00:31:51.986Z,2.10
2018-08-25T00:34:20.795Z,1.80
2018-08-25T00:36:49.038Z,1.53
2018-08-25T00:39:16.828Z,1.50
2018-08-25T00:41:44.569Z,2.23
2018-08-25T00:44:12.402Z,1.93
2018-08-25T00:46:40.300Z,1.50
2018-08-25T00:49:08.025Z,1.80
2018-08-25T00:51:36.195Z,1.43
2018-08-25T00:54:04.106Z,2.17
2018-08-25T00:56:31.947Z,1.70
2018-08-25T00:58:59.740Z,1.80
2018-08-25T01:01:27.527Z,1.57
2018-08-25T01:03:55.509Z,2.13
2018-08-25T01:06:23.341Z,1.80
2018-08-25T01:08:51.150Z,1.80
2018-08-25T01:11:19.038Z,1.67
2018-08-25T01:13:46.840Z,1.80
2018-08-25T01:16:14.676Z,1.50
2018-08-25T01:18:42.805Z,1.90
2018-08-25T01:21:10.673Z,2.00
2018-08-25T01:23:38.433Z,1.90
2018-08-25T01:26:06.237Z,2.20
2018-08-25T01:28:33.867Z,1.80
2018-08-25T01:31:01.675Z,2.00
2018-08-25T01:33:29.450Z,1.80
2018-08-25T01:35:57.231Z,1.80
2018-08-25T01:38:24.845Z,2.00
2018-08-25T01:40:52.671Z,1.93
2018-08-25T01:43:20.605Z,1.73
2018-08-25T01:45:48.299Z,2.03
2018-08-25T01:48:16.131Z,1.40
2018-08-25T01:50:43.776Z,2.23
2018-08-25T01:53:11.431Z,1.70
2018-08-25T01:55:39.265Z,1.87
2018-08-25T01:58:07.740Z,1.83
2018-08-25T02:00:35.400Z,1.90
2018-08-25T02:03:03.101Z,1.77
2018-08-25T02:05:31.576Z,1.83
2018-08-25T02:08:01.967Z,2.13
2018-08-25T02:10:29.666Z,2.00
2018-08-25T02:12:57.602Z,1.93
2018-08-25T02:15:25.400Z,2.27
2018-08-25T02:17:53.244Z,1.97
2018-08-25T02:20:21.446Z,1.50
2018-08-25T02:22:49.194Z,1.93
2018-08-25T02:25:16.938Z,1.60
2018-08-25T02:27:44.934Z,1.70
2018-08-25T02:30:12.729Z,1.87
2018-08-25T02:32:40.490Z,2.10
2018-08-25T02:35:08.271Z,2.07
2018-08-25T02:37:35.884Z,2.20
2018-08-25T02:40:03.776Z,2.07
2018-08-25T02:42:32.315Z,1.73
2018-08-25T02:44:59.988Z,2.13
2018-08-25T02:47:27.765Z,1.80
2018-08-25T02:49:55.514Z,2.10
2018-08-25T02:52:23.233Z,1.70
2018-08-25T02:54:50.991Z,2.23
2018-08-25T02:57:18.755Z,2.20
2018-08-25T02:59:46.523Z,1.80
2018-08-25T03:02:14.341Z,2.30
2018-08-25T03:04:42.072Z,2.37
2018-08-25T03:07:10.284Z,2.10
2018-08-25T03:09:38.064Z,2.20
2018-08-25T03:12:06.405Z,1.70
2018-08-25T03:14:34.163Z,2.13
2018-08-25T03:17:02.033Z,2.40
2018-08-25T03:19:29.883Z,2.50
2018-08-25T03:21:57.673Z,2.03
2018-08-25T03:24:25.570Z,2.07
2018-08-25T03:26:53.433Z,2.20
2018-08-25T03:29:21.053Z,2.60
2018-08-25T03:31:48.943Z,2.37
2018-08-25T03:34:16.873Z,2.03
2018-08-25T03:36:44.697Z,2.30
2018-08-25T03:39:12.738Z,2.37
2018-08-25T03:41:40.799Z,2.40
2018-08-25T03:44:09.545Z,2.03
2018-08-25T03:46:37.333Z,2.07
2018-08-25T03:49:05.158Z,2.23
2018-08-25T03:51:32.942Z,2.33
2018-08-25T03:54:00.742Z,2.50
2018-08-25T03:56:28.608Z,2.30
2018-08-25T03:58:56.422Z,2.83
2018-08-25T04:01:24.149Z,2.73
2018-08-25T04:03:51.914Z,2.30
2018-08-25T04:06:20.021Z,2.37
2018-08-25T04:08:47.782Z,2.70
2018-08-25T04:11:16.152Z,3.20
2018-08-25T04:13:44.071Z,2.97
2018-08-25T04:16:11.990Z,2.90
2018-08-25T04:18:39.787Z,3.30
2018-08-25T04:21:07.625Z,2.77
2018-08-25T04:23:35.725Z,2.43
2018-08-25T04:26:03.563Z,2.53
2018-08-25T04:28:31.325Z,2.73
2018-08-25T04:30:59.161Z,2.70
2018-08-25T04:33:27.199Z,2.63
2018-08-25T04:35:54.965Z,2.40
2018-08-25T04:38:22.749Z,2.50
2018-08-25T04:40:50.432Z,2.80
2018-08-25T04:43:18.104Z,3.20
2018-08-25T04:45:45.843Z,2.73
2018-08-25T04:48:13.504Z,2.90
2018-08-25T04:50:41.100Z,3.50
2018-08-25T04:53:08.702Z,2.70
2018-08-25T04:55:36.486Z,2.60
2018-08-25T04:58:04.256Z,2.60
2018-08-25T05:00:31.987Z,2.30
2018-08-25T05:02:59.818Z,2.73
2018-08-25T05:05:27.572Z,2.60
2018-08-25T05:07:55.436Z,2.60
2018-08-25T05:10:23.276Z,2.23
2018-08-25T05:12:51.580Z,3.03
2018-08-25T05:15:19.310Z,2.63
2018-08-25T05:17:47.126Z,2.53
2018-08-25T05:20:15.085Z,3.00
2018-08-25T05:22:42.896Z,3.40
2018-08-25T05:25:10.814Z,2.60
2018-08-25T05:27:38.483Z,2.57
2018-08-25T05:30:06.977Z,3.03
2018-08-25T05:32:34.622Z,2.50
2018-08-25T05:35:02.410Z,2.87
2018-08-25T05:37:30.282Z,2.50
2018-08-25T05:39:59.000Z,3.13
2018-08-25T05:42:26.863Z,2.40
2018-08-25T05:44:54.631Z,2.60
2018-08-25T05:47:22.367Z,2.90
2018-08-25T05:49:50.113Z,2.87
2018-08-25T05:52:17.733Z,2.43
2018-08-25T05:54:45.505Z,2.80
2018-08-25T05:57:13.284Z,2.97
2018-08-25T05:59:41.032Z,2.70
2018-08-25T06:02:08.837Z,2.37
2018-08-25T06:04:36.496Z,2.90
2018-08-25T06:07:04.333Z,2.63
2018-08-25T06:09:32.049Z,3.10
2018-08-25T06:11:59.703Z,3.57
2018-08-25T06:14:27.439Z,2.50
2018-08-25T06:16:55.299Z,2.70
2018-08-25T06:19:23.167Z,2.50
2018-08-25T06:21:50.913Z,2.10
2018-08-25T06:24:18.790Z,2.67
2018-08-25T06:26:47.185Z,2.40
2018-08-25T06:29:14.880Z,3.10
2018-08-25T06:31:43.048Z,2.27
2018-08-25T06:34:10.938Z,2.60
2018-08-25T06:36:38.765Z,2.50
2018-08-25T06:39:07.023Z,4.13
2018-08-25T06:41:34.792Z,2.10
2018-08-25T06:44:02.585Z,3.00
2018-08-25T06:46:30.346Z,2.57
2018-08-25T06:48:58.177Z,2.53
2018-08-25T06:51:25.995Z,2.70
2018-08-25T06:53:53.926Z,2.50
2018-08-25T06:56:21.885Z,2.40
2018-08-25T06:58:49.654Z,2.13
2018-08-25T07:01:17.369Z,2.57
2018-08-25T07:03:45.208Z,2.60
2018-08-25T07:06:12.945Z,2.60
2018-08-25T07:08:40.697Z,2.30
2018-08-25T07:11:08.577Z,2.10
2018-08-25T07:13:36.401Z,2.30
2018-08-25T07:16:04.408Z,2.00
2018-08-25T07:18:32.162Z,2.37
2018-08-25T07:20:59.921Z,1.83
2018-08-25T07:23:27.686Z,2.00
2018-08-25T07:25:55.409Z,2.50
2018-08-25T07:28:23.450Z,2.30
2018-08-25T07:30:51.117Z,1.97
2018-08-25T07:33:19.041Z,2.80
2018-08-25T07:35:46.909Z,1.90
2018-08-25T07:38:14.719Z,1.80
2018-08-25T07:40:42.622Z,2.20
2018-08-25T07:43:10.544Z,2.40
2018-08-25T07:45:38.536Z,1.97
2018-08-25T07:48:06.380Z,1.93
2018-08-25T07:50:34.329Z,2.00
2018-08-25T07:53:02.230Z,1.80
2018-08-25T07:55:29.919Z,1.67
2018-08-25T07:57:57.817Z,2.00
2018-08-25T08:00:25.707Z,2.03
2018-08-25T08:02:53.658Z,2.03
2018-08-25T08:05:21.634Z,1.87
2018-08-25T08:07:49.588Z,2.00
2018-08-25T08:10:17.523Z,2.10
2018-08-25T08:12:45.298Z,1.97
2018-08-25T08:15:13.713Z,1.70
2018-08-25T08:17:41.852Z,1.97
2018-08-25T08:20:09.982Z,1.90
2018-08-25T08:22:38.351Z,2.07
2018-08-25T08:25:05.986Z,2.10
2018-08-25T08:27:33.829Z,2.20
2018-08-25T08:30:01.760Z,1.97
2018-08-25T08:32:29.595Z,1.60
2018-08-25T08:34:57.312Z,1.60
2018-08-25T11:49:09.993Z,1.70
2018-08-25T11:51:37.856Z,2.57
2018-08-25T11:54:05.524Z,2.63
2018-08-25T11:56:33.230Z,2.50
2018-08-25T11:59:01.245Z,1.90
2018-08-25T12:01:29.703Z,2.23
2018-08-25T12:03:58.425Z,2.47
2018-08-25T12:06:26.291Z,2.80
2018-08-25T12:08:54.517Z,2.20
2018-08-25T12:11:22.340Z,3.07
2018-08-25T12:13:50.140Z,3.03
2018-08-25T12:16:24.985Z,3.40
2018-08-25T12:18:52.680Z,3.23
2018-08-25T12:21:20.342Z,3.40
2018-08-25T12:23:47.954Z,3.50
2018-08-25T12:26:15.930Z,3.20
2018-08-25T12:28:43.598Z,3.40
2018-08-25T12:31:11.460Z,3.00
2018-08-25T12:33:39.315Z,2.70
2018-08-25T12:36:07.062Z,2.70
2018-08-25T12:38:34.850Z,2.97
2018-08-25T12:41:03.274Z,2.70
2018-08-25T12:43:31.099Z,2.27
2018-08-25T12:45:58.962Z,2.70
2018-08-25T12:48:26.665Z,2.80
2018-08-25T12:50:54.510Z,2.40
2018-08-25T12:53:22.260Z,2.40
2018-08-25T12:55:50.071Z,2.47
2018-08-25T12:58:17.795Z,1.90
2018-08-25T13:00:45.568Z,2.37
2018-08-25T13:03:13.445Z,1.63
2018-08-25T13:30:13.857Z,1.80
2018-08-25T13:32:43.054Z,1.80
2018-08-25T13:35:11.172Z,1.60
2018-08-25T13:37:39.298Z,1.70
2018-08-25T13:49:58.378Z,1.60
2018-08-25T13:52:26.338Z,1.67
2018-08-25T13:54:54.342Z,2.17
2018-08-25T13:57:22.484Z,1.80
2018-08-25T13:59:50.116Z,1.70
2018-08-25T14:02:18.239Z,1.50
2018-08-25T14:04:47.196Z,2.10
2018-08-25T14:29:44.012Z,1.40
2018-08-25T14:32:12.056Z,1.33
2018-08-25T14:34:40.753Z,1.80
2018-08-25T14:37:13.330Z,1.60
2018-08-25T14:39:41.517Z,1.73
2018-08-25T14:42:09.326Z,1.60
2018-08-25T14:44:37.116Z,1.47
2018-08-25T14:47:05.264Z,1.53
2018-08-25T14:49:34.371Z,1.30
2018-08-25T15:14:08.672Z,1.10
2018-08-25T15:16:36.322Z,1.03
2018-08-25T15:19:04.049Z,1.10
2018-08-25T15:21:31.936Z,1.27
2018-08-25T15:23:59.602Z,1.00
2018-08-25T15:26:29.233Z,1.20
2018-08-25T15:29:00.028Z,1.00
2018-08-25T15:31:28.748Z,1.23
2018-08-25T15:33:56.558Z,1.10
2018-08-25T15:36:24.182Z,0.77
2018-08-25T15:39:16.186Z,0.90
2018-08-25T15:41:45.359Z,0.90
2018-08-25T15:44:13.211Z,0.80
2018-08-25T15:46:41.099Z,0.90
2018-08-25T15:49:08.907Z,1.00
2018-08-25T15:51:36.786Z,1.00
2018-08-25T15:54:04.714Z,1.20
2018-08-25T15:56:32.670Z,1.07
2018-08-25T15:59:00.324Z,0.83
2018-08-25T16:01:28.391Z,1.10
2018-08-25T16:03:56.076Z,0.90
2018-08-25T16:06:23.832Z,0.90
2018-08-25T16:08:51.639Z,1.43
2018-08-25T16:11:19.628Z,1.00
2018-08-25T16:13:47.301Z,1.37
2018-08-25T16:16:15.148Z,1.30
2018-08-25T16:18:42.911Z,1.87
2018-08-25T16:21:10.729Z,1.30
2018-08-25T16:23:43.429Z,1.67
2018-08-25T16:26:14.536Z,1.37
2018-08-25T16:28:42.367Z,1.10
2018-08-25T16:31:10.234Z,1.50
2018-08-25T16:33:38.153Z,1.00
2018-08-25T16:36:06.332Z,1.17
2018-08-25T16:38:34.124Z,1.40
2018-08-25T16:41:01.934Z,1.00
2018-08-25T16:43:29.670Z,1.03
2018-08-25T16:45:58.528Z,1.17
2018-08-25T16:48:26.526Z,1.13
2018-08-25T16:50:55.446Z,1.60
2018-08-25T16:53:28.316Z,1.30
2018-08-25T16:55:57.683Z,1.60
2018-08-25T16:58:25.779Z,1.60
2018-08-25T17:00:54.787Z,1.63
2018-08-25T17:03:23.499Z,1.97
2018-08-25T17:05:52.126Z,1.33
2018-08-25T17:08:19.960Z,1.30
2018-08-25T17:10:47.785Z,1.90
2018-08-25T17:13:18.110Z,1.77
2018-08-25T17:15:46.738Z,1.40
2018-08-25T17:18:17.342Z,1.43
2018-08-25T17:20:46.245Z,1.20
2018-08-25T17:23:16.942Z,1.40
2018-08-25T17:25:46.355Z,1.40
2018-08-25T17:28:14.201Z,1.10
2018-08-25T17:30:41.918Z,1.20
2018-08-25T17:33:10.192Z,1.57
2018-08-25T17:35:38.690Z,1.87
2018-08-25T17:38:06.965Z,2.03
2018-08-25T17:40:34.730Z,1.67
2018-08-25T17:43:02.514Z,1.53
2018-08-25T17:45:31.691Z,1.53
2018-08-25T17:47:59.557Z,1.70
2018-08-25T17:50:28.337Z,1.80
2018-08-25T17:52:56.665Z,1.37
2018-08-25T17:55:24.364Z,1.50
2018-08-25T17:57:53.100Z,1.60
2018-08-25T18:00:22.738Z,1.77
2018-08-25T18:02:51.007Z,1.50
2018-08-25T18:05:19.257Z,1.70
2018-08-25T18:07:47.015Z,1.70
2018-08-25T18:10:15.765Z,1.80
2018-08-25T18:12:43.635Z,1.80
2018-08-25T18:15:11.277Z,1.53
2018-08-25T18:17:39.117Z,1.33
2018-08-25T18:20:07.147Z,1.67
2018-08-25T18:22:34.885Z,1.30
2018-08-25T18:25:02.963Z,1.27
2018-08-25T18:27:30.893Z,1.43
2018-08-25T18:29:58.841Z,1.90
2018-08-25T18:32:27.548Z,1.67
2018-08-25T18:34:55.460Z,1.33
2018-08-25T18:37:23.457Z,1.20
2018-08-25T18:39:51.208Z,1.40
2018-08-25T18:42:18.973Z,1.50
2018-08-25T18:44:46.704Z,1.50
2018-08-25T18:47:14.455Z,1.50
2018-08-25T18:49:42.151Z,1.40
2018-08-25T18:52:09.874Z,1.53
2018-08-25T18:54:38.797Z,1.30
2018-08-25T18:57:06.474Z,1.50
2018-08-25T18:59:34.204Z,1.40
2018-08-25T19:02:02.184Z,1.87
2018-08-25T19:04:30.308Z,1.77
2018-08-25T19:06:58.058Z,1.50
2018-08-25T19:09:26.200Z,1.47
2018-08-25T19:11:53.980Z,1.73
2018-08-25T19:14:22.477Z,1.63
2018-08-25T19:16:50.117Z,1.67
2018-08-25T19:19:17.954Z,1.77
2018-08-25T19:21:45.685Z,1.97
2018-08-25T19:24:13.646Z,1.73
2018-08-25T19:26:42.617Z,1.77
2018-08-25T19:29:10.439Z,1.80
2018-08-25T19:31:38.272Z,2.20
2018-08-25T19:34:06.040Z,2.17
2018-08-25T19:36:33.709Z,2.40
2018-08-25T19:39:01.703Z,2.20
2018-08-25T19:41:29.461Z,2.33
2018-08-25T19:43:57.247Z,3.17
2018-08-25T19:46:25.026Z,2.70
2018-08-25T19:48:53.146Z,2.90
2018-08-25T19:51:21.725Z,3.20
2018-08-25T19:54:02.703Z,2.90
2018-08-25T19:56:31.556Z,3.30
2018-08-25T19:59:00.814Z,2.70
2018-08-25T20:01:28.663Z,2.97
2018-08-25T20:03:57.947Z,2.97
2018-08-25T20:06:25.914Z,2.50
2018-08-25T20:08:57.869Z,1.90
2018-08-25T20:11:26.014Z,2.40
2018-08-25T20:13:53.991Z,2.30
2018-08-25T20:16:21.830Z,2.97
2018-08-25T20:18:50.117Z,2.73
2018-08-25T20:21:17.952Z,2.40
2018-08-25T20:23:45.916Z,2.23
2018-08-25T20:26:13.622Z,2.03
2018-08-25T20:28:41.340Z,2.03
2018-08-25T20:31:09.014Z,2.00
2018-08-25T20:33:36.812Z,2.17
2018-08-25T20:36:06.046Z,2.07
2018-08-25T20:38:34.049Z,1.33
2018-08-25T20:41:02.186Z,1.80
2018-08-25T20:43:29.882Z,1.90
2018-08-25T20:45:58.048Z,1.80
2018-08-25T20:48:25.745Z,1.90
2018-08-25T20:50:53.334Z,1.60
2018-08-25T20:53:22.002Z,1.67
2018-08-25T20:55:49.621Z,2.00
2018-08-25T20:58:17.509Z,1.50
2018-08-25T21:00:45.923Z,2.43
2018-08-25T21:03:14.433Z,1.50
2018-08-25T21:05:42.887Z,2.00
2018-08-25T21:08:10.618Z,1.63
2018-08-25T21:10:38.541Z,1.53
2018-08-25T21:13:06.229Z,2.87
2018-08-25T21:15:33.876Z,1.37
2018-08-25T21:18:01.656Z,1.60
2018-08-25T21:20:29.422Z,1.47
2018-08-25T21:22:57.500Z,1.83
2018-08-25T21:25:25.213Z,2.03
2018-08-25T21:27:52.872Z,1.80
2018-08-25T21:30:20.688Z,1.97
2018-08-25T21:32:48.816Z,1.63
2018-08-25T21:35:16.666Z,2.70
2018-08-25T21:37:44.410Z,1.67
2018-08-25T21:40:12.263Z,2.00
2018-08-25T21:42:40.345Z,1.60
2018-08-25T21:45:14.370Z,1.50
2018-08-25T21:47:42.135Z,1.60
2018-08-25T21:50:09.946Z,2.00
2018-08-25T21:52:37.795Z,2.20
2018-08-25T21:55:05.706Z,1.80
2018-08-25T21:57:33.295Z,2.03
2018-08-25T22:00:01.001Z,1.73
2018-08-25T22:02:29.011Z,2.03
2018-08-25T22:04:56.792Z,1.80
2018-08-25T22:07:25.129Z,1.60
2018-08-25T22:09:52.836Z,1.70
2018-08-25T22:12:20.616Z,2.40
2018-08-25T22:14:48.468Z,2.00
2018-08-25T22:17:16.987Z,1.70
2018-08-25T22:19:44.879Z,2.00
2018-08-25T22:22:12.595Z,2.30
2018-08-25T22:24:40.386Z,1.90
2018-08-25T22:27:08.158Z,1.80
2018-08-25T22:29:36.067Z,2.00
2018-08-25T22:32:04.037Z,1.67
2018-08-25T22:34:31.908Z,2.00
2018-08-25T22:36:59.584Z,1.80
2018-08-25T22:39:27.397Z,1.90
2018-08-25T22:41:55.109Z,1.80
2018-08-25T22:44:23.296Z,2.10
2018-08-25T22:46:51.033Z,2.70
2018-08-25T22:49:18.841Z,2.00
2018-08-25T22:51:46.575Z,1.63
2018-08-25T22:54:14.294Z,1.80
2018-08-25T22:56:42.045Z,2.50
2018-08-25T22:59:09.747Z,2.13
2018-08-25T23:01:37.416Z,2.13
2018-08-25T23:04:05.295Z,1.70
2018-08-25T23:06:32.951Z,2.20
2018-08-25T23:09:00.696Z,1.70
2018-08-25T23:11:28.430Z,2.50
2018-08-25T23:13:56.328Z,2.20
2018-08-25T23:16:24.086Z,2.27
2018-08-25T23:18:51.959Z,2.90
2018-08-25T23:21:20.022Z,2.17
2018-08-25T23:23:47.821Z,2.30
2018-08-25T23:26:15.695Z,1.73
2018-08-25T23:28:43.393Z,2.50
2018-08-25T23:31:11.951Z,2.20
2018-08-25T23:33:39.764Z,2.20
2018-08-25T23:36:07.498Z,2.20
2018-08-25T23:38:35.197Z,2.23
2018-08-25T23:41:03.021Z,2.47
2018-08-25T23:43:30.619Z,3.07
2018-08-25T23:45:58.317Z,2.33
2018-08-25T23:48:26.145Z,2.23
2018-08-25T23:50:53.910Z,2.30
2018-08-25T23:53:21.550Z,2.43
2018-08-25T23:55:49.250Z,2.07
2018-08-25T23:58:17.055Z,2.20
